createdAt,value
2022-08-09T00:01:43.118Z,15.60
2022-08-09T00:06:23.029Z,15.60
2022-08-09T00:08:31.899Z,15.60
2022-08-09T00:12:43.216Z,15.70
2022-08-09T00:14:49.664Z,15.70
2022-08-09T00:19:03.634Z,15.70
2022-08-09T00:21:14.244Z,15.70
2022-08-09T00:23:54.875Z,15.60
2022-08-09T00:26:05.150Z,15.50
2022-08-09T00:28:11.328Z,15.40
2022-08-09T00:30:25.048Z,15.30
2022-08-09T00:32:30.906Z,15.20
2022-08-09T00:34:35.216Z,15.10
2022-08-09T00:36:39.973Z,15.00
2022-08-09T00:38:50.869Z,14.90
2022-08-09T00:40:55.605Z,14.80
2022-08-09T00:44:14.087Z,14.80
2022-08-09T00:45:25.239Z,14.80
2022-08-09T00:47:35.909Z,14.70
2022-08-09T00:49:43.868Z,15.00
2022-08-09T00:52:05.961Z,15.00
2022-08-09T00:54:11.397Z,14.90
2022-08-09T00:56:16.404Z,14.90
2022-08-09T00:58:22.149Z,14.90
2022-08-09T01:00:35.162Z,14.90
2022-08-09T01:04:55.346Z,14.90
2022-08-09T01:07:05.472Z,14.90
2022-08-09T01:09:20.403Z,15.00
2022-08-09T01:11:36.112Z,15.00
2022-08-09T01:13:59.157Z,14.90
2022-08-09T01:18:30.587Z,14.80
2022-08-09T01:20:44.495Z,14.80
2022-08-09T01:24:02.775Z,14.80
2022-08-09T01:26:02.725Z,14.80
2022-08-09T01:28:11.309Z,15.00
2022-08-09T01:30:33.619Z,15.10
2022-08-09T01:34:52.123Z,15.20
2022-08-09T01:36:59.938Z,15.30
2022-08-09T01:39:04.471Z,15.30
2022-08-09T01:41:18.001Z,15.40
2022-08-09T01:43:24.392Z,15.40
2022-08-09T01:45:31.616Z,15.40
2022-08-09T01:49:51.037Z,15.50
2022-08-09T01:52:07.240Z,15.50
2022-08-09T01:54:12.400Z,15.40
2022-08-09T01:56:18.279Z,15.30
2022-08-09T02:00:36.403Z,15.30
2022-08-09T02:04:48.537Z,15.30
2022-08-09T02:09:24.227Z,15.30
2022-08-09T02:11:41.940Z,15.30
2022-08-09T02:14:06.145Z,15.10
2022-08-09T02:16:13.271Z,15.00
2022-08-09T02:18:20.934Z,15.00
2022-08-09T02:20:32.756Z,14.90
2022-08-09T02:22:41.523Z,14.90
2022-08-09T02:24:55.304Z,14.90
2022-08-09T02:27:12.548Z,14.70
2022-08-09T02:29:26.628Z,14.60
2022-08-09T02:34:07.042Z,14.70
2022-08-09T02:36:11.280Z,14.90
2022-08-09T02:38:28.961Z,15.00
2022-08-09T02:40:36.492Z,15.10
2022-08-09T02:42:50.983Z,15.20
2022-08-09T02:45:02.444Z,15.30
2022-08-09T02:47:12.043Z,15.20
2022-08-09T02:49:19.496Z,15.20
2022-08-09T02:51:40.910Z,15.10
2022-08-09T02:54:00.373Z,15.10
2022-08-09T02:56:07.858Z,15.10
2022-08-09T02:58:35.413Z,15.00
2022-08-09T03:00:58.297Z,15.00
2022-08-09T03:03:05.625Z,14.90
2022-08-09T03:05:16.824Z,14.90
2022-08-09T03:07:22.413Z,14.80
2022-08-09T03:09:27.974Z,14.80
2022-08-09T03:12:05.541Z,14.80
2022-08-09T03:14:06.201Z,14.70
2022-08-09T03:16:12.071Z,14.70
2022-08-09T03:18:30.633Z,14.70
2022-08-09T03:20:35.366Z,14.60
2022-08-09T03:22:57.111Z,14.50
2022-08-09T03:25:06.295Z,14.50
2022-08-09T03:27:27.645Z,14.30
2022-08-09T03:29:43.140Z,14.40
2022-08-09T03:32:08.390Z,14.40
2022-08-09T03:34:12.896Z,14.50
2022-08-09T03:36:18.087Z,14.40
2022-08-09T03:38:28.786Z,14.50
2022-08-09T03:40:34.549Z,14.50
2022-08-09T03:42:38.347Z,14.50
2022-08-09T03:44:42.982Z,14.50
2022-08-09T03:46:48.010Z,14.40
2022-08-09T03:49:04.391Z,14.40
2022-08-09T03:51:56.577Z,14.50
2022-08-09T03:55:45.847Z,14.30
2022-08-09T04:00:12.113Z,14.00
2022-08-09T04:02:27.372Z,13.90
2022-08-09T04:04:38.639Z,13.80
2022-08-09T04:06:48.817Z,13.80
2022-08-09T04:08:54.249Z,13.60
2022-08-09T04:11:01.282Z,13.60
2022-08-09T04:13:11.570Z,13.60
2022-08-09T04:15:39.235Z,13.60
2022-08-09T04:17:45.109Z,13.70
2022-08-09T04:22:04.049Z,14.10
2022-08-09T04:24:16.111Z,14.20
2022-08-09T04:26:23.790Z,14.40
2022-08-09T04:28:34.079Z,14.50
2022-08-09T04:30:44.976Z,14.60
2022-08-09T04:32:49.341Z,14.70
2022-08-09T04:34:57.395Z,14.90
2022-08-09T04:37:03.011Z,14.90
2022-08-09T04:39:09.744Z,15.00
2022-08-09T04:41:15.638Z,15.10
2022-08-09T04:43:21.669Z,15.10
2022-08-09T04:45:25.474Z,15.10
2022-08-09T04:49:59.678Z,15.30
2022-08-09T04:52:04.843Z,15.40
2022-08-09T04:54:11.969Z,15.50
2022-08-09T04:56:20.030Z,15.50
2022-08-09T04:58:33.938Z,15.60
2022-08-09T05:00:39.396Z,15.70
2022-08-09T05:02:52.009Z,15.80
2022-08-09T05:04:57.452Z,15.80
2022-08-09T05:07:12.761Z,15.90
2022-08-09T05:09:23.889Z,15.90
2022-08-09T05:11:32.198Z,16.00
2022-08-09T05:13:40.993Z,16.20
2022-08-09T05:15:48.032Z,16.30
2022-08-09T05:18:39.043Z,16.30
2022-08-09T05:20:15.972Z,16.40
2022-08-09T05:22:34.944Z,16.50
2022-08-09T05:24:45.200Z,16.50
2022-08-09T05:26:57.313Z,16.50
2022-08-09T05:29:02.312Z,16.60
2022-08-09T05:31:09.417Z,16.60
2022-08-09T05:33:14.572Z,16.60
2022-08-09T05:35:22.058Z,16.70
2022-08-09T05:37:27.838Z,16.80
2022-08-09T05:39:36.149Z,16.90
2022-08-09T05:41:46.958Z,17.00
2022-08-09T05:43:53.136Z,17.20
2022-08-09T05:46:02.907Z,17.20
2022-08-09T05:48:09.433Z,17.30
2022-08-09T05:50:35.004Z,17.40
2022-08-09T05:52:41.985Z,17.50
2022-08-09T05:54:46.171Z,17.70
2022-08-09T05:56:56.772Z,17.70
2022-08-09T06:01:08.547Z,17.90
2022-08-09T06:05:30.602Z,18.30
2022-08-09T06:08:05.510Z,18.50
2022-08-09T06:10:18.068Z,18.50
2022-08-09T06:12:26.364Z,18.90
2022-08-09T06:14:31.492Z,19.10
2022-08-09T06:16:35.507Z,19.20
2022-08-09T06:18:41.967Z,19.30
2022-08-09T06:20:54.154Z,19.30
2022-08-09T06:23:01.632Z,19.50
2022-08-09T06:25:12.436Z,19.70
2022-08-09T06:29:27.233Z,20.00
2022-08-09T06:31:40.233Z,20.20
2022-08-09T06:33:55.231Z,20.60
2022-08-09T06:36:13.718Z,21.10
2022-08-09T06:38:31.959Z,21.30
2022-08-09T06:40:41.390Z,21.70
2022-08-09T06:42:48.070Z,22.00
2022-08-09T06:55:25.649Z,23.10
2022-08-09T06:58:02.083Z,23.70
2022-08-09T07:00:54.409Z,24.00
2022-08-09T07:02:18.620Z,24.50
2022-08-09T07:04:24.969Z,24.90
2022-08-09T07:06:33.086Z,25.10
2022-08-09T07:08:39.594Z,24.80
2022-08-09T07:12:57.500Z,24.90
2022-08-09T07:16:34.955Z,25.30
2022-08-09T07:17:28.847Z,25.50
2022-08-09T16:58:10.147Z,24.50
2022-08-09T17:00:17.768Z,24.60
2022-08-09T17:02:23.660Z,24.40
2022-08-09T17:04:29.836Z,24.40
2022-08-09T17:06:33.853Z,24.30
2022-08-09T17:09:45.654Z,24.20
2022-08-09T17:11:40.871Z,24.00
2022-08-09T17:13:47.791Z,24.00
2022-08-09T17:16:06.299Z,23.90
2022-08-09T17:18:13.910Z,23.80
2022-08-09T17:20:33.219Z,23.70
2022-08-09T17:22:50.324Z,23.60
2022-08-09T17:25:02.998Z,23.50
2022-08-09T17:27:15.552Z,23.50
2022-08-09T17:29:21.247Z,23.40
2022-08-09T17:31:25.358Z,23.30
2022-08-09T17:33:37.959Z,23.30
2022-08-09T17:35:45.369Z,23.20
2022-08-09T17:38:13.026Z,23.20
2022-08-09T17:40:17.186Z,23.20
2022-08-09T17:42:41.969Z,23.00
2022-08-09T17:44:49.231Z,22.90
2022-08-09T17:46:55.287Z,22.80
2022-08-09T17:49:00.006Z,22.70
2022-08-09T17:51:17.624Z,22.70
2022-08-09T17:53:32.037Z,22.70
2022-08-09T17:55:48.548Z,22.60
2022-08-09T17:58:03.357Z,22.50
2022-08-09T18:00:09.883Z,22.50
2022-08-09T18:02:28.911Z,22.40
2022-08-09T18:04:36.232Z,22.30
2022-08-09T18:06:43.041Z,22.30
2022-08-09T18:11:02.142Z,22.30
2022-08-09T18:13:53.938Z,22.20
2022-08-09T18:16:04.957Z,22.10
2022-08-09T18:18:02.187Z,22.00
2022-08-09T18:20:56.018Z,21.90
2022-08-09T18:22:35.724Z,22.00
2022-08-09T18:24:42.739Z,21.90
2022-08-09T18:30:41.056Z,21.80
2022-08-09T18:31:32.496Z,21.70
2022-08-09T18:33:49.305Z,21.60
2022-08-09T18:36:00.569Z,21.60
2022-08-09T18:38:04.469Z,21.50
2022-08-09T18:40:10.118Z,21.60
2022-08-09T18:42:18.195Z,21.60
2022-08-09T18:44:25.989Z,21.60
2022-08-09T18:46:50.446Z,21.50
2022-08-09T18:48:54.954Z,21.40
2022-08-09T18:51:06.243Z,21.40
2022-08-09T18:53:13.755Z,21.40
2022-08-09T18:55:45.787Z,21.40
2022-08-09T18:57:48.979Z,21.30
2022-08-09T19:02:09.041Z,21.20
2022-08-09T19:04:13.616Z,21.20
2022-08-09T19:06:17.405Z,21.10
2022-08-09T19:08:28.105Z,20.90
2022-08-09T19:10:37.559Z,20.90
2022-08-09T19:12:45.532Z,20.90
2022-08-09T19:14:57.816Z,20.80
2022-08-09T19:17:01.537Z,20.70
2022-08-09T19:19:25.445Z,20.70
2022-08-09T19:21:51.714Z,20.70
2022-08-09T19:24:37.778Z,20.70
2022-08-09T19:26:18.372Z,20.70
2022-08-09T19:28:28.873Z,20.70
2022-08-09T19:30:34.817Z,20.70
2022-08-09T19:32:38.927Z,20.80
2022-08-09T19:34:46.698Z,20.70
2022-08-09T19:36:57.520Z,20.70
2022-08-09T19:39:05.527Z,20.60
2022-08-09T19:41:09.977Z,20.70
2022-08-09T19:43:16.364Z,20.70
2022-08-09T19:45:42.130Z,20.60
2022-08-09T19:47:46.138Z,20.50
2022-08-09T19:50:08.841Z,20.50
2022-08-09T19:52:18.278Z,20.50
2022-08-09T19:56:30.600Z,20.30
2022-08-09T19:58:38.010Z,20.20
2022-08-09T20:00:54.934Z,20.10
2022-08-09T20:04:17.216Z,20.00
2022-08-09T20:05:24.990Z,19.80
2022-08-09T20:09:56.160Z,19.60
2022-08-09T20:12:02.516Z,19.50
2022-08-09T20:14:07.061Z,19.40
2022-08-09T20:16:35.317Z,19.30
2022-08-09T20:21:08.438Z,19.00
2022-08-09T20:23:15.551Z,18.80
2022-08-09T20:25:22.416Z,18.80
2022-08-09T20:27:29.344Z,18.70
2022-08-09T20:29:37.873Z,18.70
2022-08-09T20:32:16.802Z,18.60
2022-08-09T20:34:07.815Z,18.40
2022-08-09T20:38:21.053Z,18.10
2022-08-09T20:40:37.957Z,18.00
2022-08-09T20:42:53.454Z,17.90
2022-08-09T20:45:59.345Z,17.90
2022-08-09T20:47:45.574Z,17.80
2022-08-09T20:49:54.723Z,17.60
2022-08-09T20:52:02.315Z,17.50
2022-08-09T20:54:06.053Z,17.40
2022-08-09T20:56:21.786Z,17.30
2022-08-09T20:58:27.802Z,17.10
2022-08-09T21:00:37.658Z,16.90
2022-08-09T21:02:51.976Z,16.80
2022-08-09T21:05:57.264Z,16.70
2022-08-09T21:07:30.266Z,16.60
2022-08-09T21:09:56.618Z,16.50
2022-08-09T21:14:10.528Z,16.30
2022-08-09T21:16:19.433Z,16.20
2022-08-09T21:18:35.559Z,16.10
2022-08-09T21:21:01.436Z,16.10
2022-08-09T21:23:22.225Z,15.90
2022-08-09T21:25:59.700Z,15.90
2022-08-09T21:30:26.160Z,15.90
2022-08-09T21:32:35.671Z,15.90
2022-08-09T21:34:48.356Z,15.80
2022-08-09T21:36:56.534Z,15.80
2022-08-09T21:39:04.869Z,15.70
2022-08-09T21:43:31.441Z,15.50
2022-08-09T21:45:47.446Z,15.50
2022-08-09T21:47:55.615Z,15.50
2022-08-09T21:50:01.281Z,15.40
2022-08-09T21:52:07.898Z,15.30
2022-08-09T21:54:19.025Z,15.30
2022-08-09T21:56:33.985Z,15.40
2022-08-09T21:58:48.384Z,15.30
2022-08-09T22:00:52.707Z,15.30
2022-08-09T22:03:00.075Z,15.20
2022-08-09T22:07:41.512Z,15.10
2022-08-09T22:09:51.566Z,15.00
2022-08-09T22:12:18.019Z,15.00
2022-08-09T22:18:33.088Z,15.00
2022-08-09T22:20:38.824Z,15.10
2022-08-09T22:22:44.215Z,15.10
2022-08-09T22:26:07.136Z,15.00
2022-08-09T22:27:21.082Z,14.90
2022-08-09T22:29:38.377Z,14.80
2022-08-09T22:31:56.756Z,14.80
2022-08-09T22:34:03.599Z,14.80
2022-08-09T22:36:22.447Z,14.70
2022-08-09T22:38:26.851Z,14.60
2022-08-09T22:40:30.560Z,14.40
2022-08-09T22:42:38.729Z,14.40
2022-08-09T22:44:45.008Z,14.30
2022-08-09T22:49:15.963Z,14.40
2022-08-09T22:51:24.024Z,14.30
2022-08-09T22:53:33.484Z,14.30
2022-08-09T22:58:32.869Z,14.10
2022-08-09T23:00:37.431Z,14.10
2022-08-09T23:02:45.048Z,14.00
2022-08-09T23:04:53.892Z,14.00
2022-08-09T23:07:17.150Z,14.00
2022-08-09T23:09:36.031Z,13.90
2022-08-09T23:11:43.088Z,14.00
2022-08-09T23:13:47.216Z,13.90
2022-08-09T23:16:02.939Z,13.90
2022-08-09T23:18:07.798Z,13.90
2022-08-09T23:24:25.957Z,13.80
2022-08-09T23:26:29.680Z,13.70
2022-08-09T23:28:36.499Z,13.80
2022-08-09T23:30:50.834Z,13.70
2022-08-09T23:37:04.517Z,13.50
2022-08-09T23:39:12.724Z,13.50
2022-08-09T23:41:28.453Z,13.50
2022-08-09T23:43:35.021Z,13.40
2022-08-09T23:45:38.686Z,13.40
2022-08-09T23:47:44.836Z,13.40
2022-08-09T23:49:48.367Z,13.40
2022-08-09T23:51:52.476Z,13.30
2022-08-09T23:54:02.185Z,13.30
2022-08-09T23:56:09.642Z,13.30
2022-08-09T23:58:29.215Z,13.20
